Time;durP1;ratioP1;P1;durP2;ratioP2;P2;SDS_P1;SDS_P2;PMS_P1;PMS_P2;Temp;Humidity;BMP_temperature;BMP_pressure;BME280_temperature;BME280_humidity;BME280_pressure;Samples;Min_cycle;Max_cycle;Signal;HPM_P1;HPM_P2
2022/04/09 00:00:58;;;;;;;;;11.00;11.00;;;;;4.94;100.00;100717.41;5077635;27;45432;-64
2022/04/09 00:03:24;;;;;;;;;13.25;10.50;;;;;4.95;100.00;100723.44;5078349;27;45389;-64
2022/04/09 00:05:49;;;;;;;;;14.50;8.75;;;;;4.97;100.00;100724.28;5078944;27;45887;-64
2022/04/09 00:08:15;;;;;;;;;9.00;9.00;;;;;4.96;100.00;100726.00;5078653;27;45585;-65
2022/04/09 00:10:41;;;;;;;;;13.25;11.25;;;;;5.01;100.00;100723.41;5077277;28;46085;-65
2022/04/09 00:13:06;;;;;;;;;12.00;11.00;;;;;4.97;100.00;100722.56;5074371;28;45531;-65
2022/04/09 00:15:32;;;;;;;;;8.00;8.00;;;;;4.99;100.00;100725.97;5077644;28;45436;-65
2022/04/09 00:17:57;;;;;;;;;10.25;9.00;;;;;5.01;100.00;100723.41;5078689;27;45539;-64
2022/04/09 00:20:23;;;;;;;;;9.25;7.50;;;;;5.02;100.00;100725.97;5074101;27;47175;-64
2022/04/09 00:22:48;;;;;;;;;13.00;6.50;;;;;5.05;100.00;100731.13;5078531;27;45461;-64
2022/04/09 00:25:21;;;;;;;;;11.50;8.00;;;;;5.08;100.00;100740.53;5076926;27;45406;-64
2022/04/09 00:27:46;;;;;;;;;13.00;6.50;;;;;5.10;100.00;100742.25;5076195;28;45364;-64
2022/04/09 00:30:12;;;;;;;;;7.75;7.75;;;;;5.14;100.00;100743.06;5078651;27;45340;-63
2022/04/09 00:32:38;;;;;;;;;8.75;7.50;;;;;5.16;100.00;100743.91;5079243;27;45422;-64
2022/04/09 00:35:05;;;;;;;;;5.00;5.00;;;;;5.19;100.00;100749.06;5078820;27;45416;-64
2022/04/09 00:37:31;;;;;;;;;10.50;8.00;;;;;5.23;100.00;100755.06;5074849;28;45644;-64
2022/04/09 00:39:56;;;;;;;;;6.50;6.50;;;;;5.25;100.00;100755.91;5079938;27;46218;-64
2022/04/09 00:42:22;;;;;;;;;4.75;4.75;;;;;5.28;100.00;100758.47;5079651;27;45203;-64
2022/04/09 00:44:47;;;;;;;;;8.75;7.50;;;;;5.31;100.00;100764.47;5078566;28;45161;-64
2022/04/09 00:47:13;;;;;;;;;6.00;6.00;;;;;5.35;100.00;100765.28;5079818;27;45330;-64
2022/04/09 00:49:40;;;;;;;;;9.25;5.00;;;;;5.39;100.00;100764.41;5078327;28;46309;-64
2022/04/09 00:52:07;;;;;;;;;8.00;5.50;;;;;5.39;100.00;100760.09;5079507;28;45327;-64
2022/04/09 00:54:34;;;;;;;;;9.50;9.50;;;;;5.40;100.00;100773.84;5077267;28;45680;-64
2022/04/09 00:57:04;;;;;;;;;6.00;6.00;;;;;5.35;100.00;100760.13;5079421;28;45466;-64
2022/04/09 00:59:31;;;;;;;;;21.25;14.75;;;;;5.36;100.00;100767.00;5079547;27;45245;-64
2022/04/09 01:01:56;;;;;;;;;41.50;31.25;;;;;5.37;100.00;100768.72;5079541;27;45372;-64
2022/04/09 01:04:23;;;;;;;;;37.75;26.50;;;;;5.36;100.00;100767.00;5079699;27;45482;-64
2022/04/09 01:06:49;;;;;;;;;40.50;29.75;;;;;5.39;100.00;100772.13;5074246;27;45333;-64
2022/04/09 01:09:15;;;;;;;;;26.50;21.25;;;;;5.40;100.00;100773.84;5082693;27;45334;-65
2022/04/09 01:11:41;;;;;;;;;14.25;5.25;;;;;5.37;100.00;100768.72;5082920;27;45345;-66
2022/04/09 01:14:07;;;;;;;;;6.00;6.00;;;;;5.39;100.00;100770.41;5083125;27;45429;-66
2022/04/09 01:16:32;;;;;;;;;4.00;3.50;;;;;5.39;100.00;100772.13;5082609;27;45520;-66
2022/04/09 01:18:59;;;;;;;;;4.75;4.50;;;;;5.40;100.00;100781.56;5083056;27;46297;-66
2022/04/09 01:21:26;;;;;;;;;5.25;4.25;;;;;5.40;100.00;100784.16;5081351;28;45386;-66
2022/04/09 01:23:51;;;;;;;;;5.00;5.00;;;;;5.40;100.00;100779.84;5078481;28;45282;-66
2022/04/09 01:26:17;;;;;;;;;4.50;4.50;;;;;5.37;100.00;100789.31;5080371;28;45354;-66
2022/04/09 01:28:43;;;;;;;;;5.00;3.50;;;;;5.35;100.00;100799.66;5082405;27;45437;-66
2022/04/09 01:31:09;;;;;;;;;4.50;4.50;;;;;5.37;100.00;100815.09;5082676;28;45311;-67
2022/04/09 01:33:34;;;;;;;;;4.50;4.00;;;;;5.38;100.00;100821.97;5082794;27;45312;-67
2022/04/09 01:36:00;;;;;;;;;2.00;2.00;;;;;5.39;100.00;100828.81;5075974;27;45299;-66
2022/04/09 01:38:25;;;;;;;;;5.50;5.00;;;;;5.37;100.00;100834.00;5080980;28;47609;-66
2022/04/09 01:40:50;;;;;;;;;4.25;4.25;;;;;5.38;100.00;100832.28;5082788;27;45333;-66
2022/04/09 01:43:16;;;;;;;;;5.00;4.75;;;;;5.41;100.00;100842.59;5081256;28;45446;-66
2022/04/09 01:45:41;;;;;;;;;4.00;4.00;;;;;5.40;100.00;100841.69;5082524;27;45451;-66
2022/04/09 01:48:07;;;;;;;;;4.00;4.00;;;;;5.39;100.00;100833.97;5082578;27;45210;-66
2022/04/09 01:50:33;;;;;;;;;1.50;1.50;;;;;5.38;100.00;100838.28;5080686;27;45417;-66
2022/04/09 01:52:59;;;;;;;;;5.33;2.00;;;;;5.38;100.00;100830.53;5081185;27;45408;-65
2022/04/09 01:55:25;;;;;;;;;5.00;2.50;;;;;5.38;100.00;100837.41;5081534;27;45573;-66
2022/04/09 01:57:51;;;;;;;;;2.00;2.00;;;;;5.37;100.00;100834.00;5081007;27;48482;-66
2022/04/09 02:00:17;;;;;;;;;3.75;3.00;;;;;5.36;100.00;100841.72;5082243;27;45369;-66
2022/04/09 02:02:43;;;;;;;;;5.25;4.00;;;;;5.34;100.00;100835.72;5082378;27;45501;-66
2022/04/09 02:05:11;;;;;;;;;7.50;2.50;;;;;5.28;100.00;100846.94;5082040;27;45318;-66
2022/04/09 02:07:38;;;;;;;;;7.50;6.50;;;;;5.23;100.00;100851.25;5081881;27;46155;-66
2022/04/09 02:10:04;;;;;;;;;4.75;4.00;;;;;5.25;100.00;100846.94;5082127;28;45327;-66
2022/04/09 02:12:34;;;;;;;;;4.25;4.00;;;;;5.28;100.00;100843.50;5075196;27;45390;-66
2022/04/09 02:15:07;;;;;;;;;1.75;1.00;;;;;5.30;100.00;100842.63;5080721;27;45452;-66
2022/04/09 02:17:33;;;;;;;;;3.50;3.50;;;;;5.32;100.00;100842.63;5081956;27;45487;-66
2022/04/09 02:19:58;;;;;;;;;4.25;4.25;;;;;5.39;100.00;100846.88;5080232;28;45386;-66
2022/04/09 02:22:24;;;;;;;;;5.75;5.50;;;;;5.43;100.00;100836.56;5080833;28;45354;-66
2022/04/09 02:24:50;;;;;;;;;8.00;4.50;;;;;5.47;100.00;100832.25;5081857;27;45303;-66
2022/04/09 02:27:15;;;;;;;;;6.00;5.50;;;;;5.48;100.00;100823.66;5080346;28;48232;-66
2022/04/09 02:29:40;;;;;;;;;4.00;4.00;;;;;5.53;100.00;100833.91;5081604;27;45441;-66
2022/04/09 02:32:06;;;;;;;;;5.00;4.50;;;;;5.57;100.00;100827.88;5081972;27;45327;-66
2022/04/09 02:34:32;;;;;;;;;7.50;6.00;;;;;5.60;100.00;100827.84;5081424;27;45536;-66
2022/04/09 02:36:57;;;;;;;;;7.75;5.25;;;;;5.64;100.00;100845.03;5075482;28;46437;-66
2022/04/09 02:39:23;;;;;;;;;6.50;4.00;;;;;5.67;100.00;100855.34;5081523;27;45212;-66
2022/04/09 02:41:50;;;;;;;;;5.00;5.00;;;;;5.65;100.00;100862.22;5081825;27;45723;-66
2022/04/09 02:44:19;;;;;;;;;5.00;5.00;;;;;5.59;100.00;100873.41;5081486;28;45386;-66
2022/04/09 02:46:47;;;;;;;;;5.75;4.75;;;;;5.55;100.00;100879.44;5081720;28;45520;-65
2022/04/09 02:49:13;;;;;;;;;6.25;5.00;;;;;5.53;100.00;100875.16;5081512;27;45279;-65
2022/04/09 02:51:38;;;;;;;;;5.75;5.75;;;;;5.53;100.00;100876.03;5081399;27;45244;-65
2022/04/09 02:54:04;;;;;;;;;7.50;7.50;;;;;5.51;100.00;100885.47;5081221;27;45205;-65
2022/04/09 02:56:29;;;;;;;;;6.00;6.00;;;;;5.52;100.00;100886.34;5081365;27;45296;-65
2022/04/09 02:58:54;;;;;;;;;5.75;5.25;;;;;5.52;100.00;100881.19;5081097;27;45354;-65
2022/04/09 03:01:20;;;;;;;;;9.75;8.00;;;;;5.50;100.00;100874.31;5081579;27;45223;-66
2022/04/09 03:03:45;;;;;;;;;8.75;5.00;;;;;5.51;100.00;100875.16;5081141;27;45144;-66
2022/04/09 03:06:10;;;;;;;;;6.00;5.75;;;;;5.52;100.00;100878.59;5081134;27;46321;-67
2022/04/09 03:08:36;;;;;;;;;6.75;5.75;;;;;5.51;100.00;100880.31;5081270;27;45450;-67
2022/04/09 03:11:01;;;;;;;;;9.50;7.00;;;;;5.47;100.00;100900.09;5080750;27;45405;-67
2022/04/09 03:13:26;;;;;;;;;8.00;7.00;;;;;5.48;100.00;100919.88;5080062;27;45327;-67
2022/04/09 03:15:52;;;;;;;;;12.00;8.75;;;;;5.43;100.00;100915.59;5080404;27;45438;-67
2022/04/09 03:18:17;;;;;;;;;7.50;4.75;;;;;5.43;100.00;100907.88;5072408;28;45451;-66
2022/04/09 03:20:43;;;;;;;;;8.00;8.00;;;;;5.37;100.00;100916.44;5079753;27;45480;-66
2022/04/09 03:23:08;;;;;;;;;4.75;4.75;;;;;5.15;100.00;100913.09;5079602;27;45337;-65
2022/04/09 03:25:33;;;;;;;;;9.00;6.25;;;;;5.07;100.00;100906.25;5079282;28;46417;-65
2022/04/09 03:27:59;;;;;;;;;8.00;7.50;;;;;4.96;100.00;100907.97;5078888;27;46536;-65
2022/04/09 03:30:24;;;;;;;;;15.75;11.25;;;;;4.89;100.00;100918.31;5078284;28;45526;-65
2022/04/09 03:32:50;;;;;;;;;14.75;12.25;;;;;4.85;100.00;100919.16;5079152;27;45428;-65
2022/04/09 03:35:15;;;;;;;;;18.00;15.00;;;;;4.81;100.00;100927.75;5077415;27;45476;-65
2022/04/09 03:37:41;;;;;;;;;19.75;14.50;;;;;4.80;100.00;100932.88;5079314;27;45555;-65
2022/04/09 03:40:08;;;;;;;;;16.75;13.00;;;;;4.81;100.00;100929.47;5079469;27;45457;-65
2022/04/09 03:42:33;;;;;;;;;15.25;13.75;;;;;4.86;100.00;100938.06;5076618;28;45241;-65
2022/04/09 03:44:59;;;;;;;;;15.25;13.50;;;;;4.81;100.00;100937.19;5079240;27;46265;-65
2022/04/09 03:47:25;;;;;;;;;16.50;15.00;;;;;4.78;100.00;100944.91;5079305;27;45240;-65
2022/04/09 03:49:50;;;;;;;;;22.75;16.00;;;;;4.78;100.00;100948.34;5079152;27;45231;-65
2022/04/09 03:52:15;;;;;;;;;13.75;12.00;;;;;4.79;100.00;100949.19;5079306;27;45450;-65
2022/04/09 03:54:41;;;;;;;;;15.00;14.00;;;;;4.78;100.00;100947.47;5068820;27;47539;-65
2022/04/09 03:57:09;;;;;;;;;18.75;13.75;;;;;4.70;100.00;100933.75;5078120;28;45375;-65
2022/04/09 03:59:34;;;;;;;;;21.25;14.75;;;;;4.74;100.00;100943.19;5076854;28;45453;-65
2022/04/09 04:02:00;;;;;;;;;17.75;10.50;;;;;4.73;100.00;100944.91;5078807;27;45315;-65
2022/04/09 04:04:25;;;;;;;;;16.00;14.75;;;;;4.70;100.00;100960.38;5078157;27;46325;-65
2022/04/09 04:06:50;;;;;;;;;15.25;14.25;;;;;4.71;100.00;100953.50;5078898;27;45453;-65
2022/04/09 04:09:16;;;;;;;;;19.25;15.00;;;;;4.73;100.00;100962.06;5079945;27;45286;-66
2022/04/09 04:11:45;;;;;;;;;19.75;13.25;;;;;4.71;100.00;100958.66;5079596;27;45417;-67
2022/04/09 04:14:11;;;;;;;;;13.50;13.25;;;;;4.71;100.00;100958.66;5076810;28;46532;-66
2022/04/09 04:16:37;;;;;;;;;19.50;17.50;;;;;4.75;100.00;100957.78;5079623;28;45458;-67
2022/04/09 04:19:03;;;;;;;;;21.75;16.75;;;;;4.81;100.00;100948.38;5079669;28;45456;-66
2022/04/09 04:21:28;;;;;;;;;22.50;17.75;;;;;4.86;100.00;100941.47;5079202;27;45429;-64
2022/04/09 04:23:54;;;;;;;;;17.75;15.00;;;;;4.92;100.00;100940.59;5078075;28;46496;-67
2022/04/09 04:26:19;;;;;;;;;19.75;15.75;;;;;5.00;100.00;100944.03;5078705;27;45507;-66
2022/04/09 04:28:48;;;;;;;;;26.75;15.00;;;;;5.02;100.00;100954.34;5078753;27;45397;-63
2022/04/09 04:31:15;;;;;;;;;17.25;15.00;;;;;5.03;100.00;100959.50;5078891;27;45504;-64
2022/04/09 04:33:40;;;;;;;;;17.50;14.50;;;;;5.06;100.00;100948.31;5078585;27;45412;-63
2022/04/09 04:36:06;;;;;;;;;26.25;20.25;;;;;5.08;100.00;100956.91;5077263;27;45678;-63
2022/04/09 04:38:31;;;;;;;;;17.75;13.50;;;;;5.14;100.00;100964.63;5078992;27;45563;-63
2022/04/09 04:40:57;;;;;;;;;16.25;11.75;;;;;5.18;100.00;100963.75;5082346;27;45521;-65
2022/04/09 04:43:22;;;;;;;;;21.25;20.00;;;;;5.18;100.00;100959.44;5079094;27;47033;-64
2022/04/09 04:45:48;;;;;;;;;16.75;16.75;;;;;5.16;100.00;100950.88;5080043;27;45371;-64
2022/04/09 04:48:13;;;;;;;;;22.25;20.50;;;;;5.18;100.00;100954.28;5082922;27;45240;-64
2022/04/09 04:50:38;;;;;;;;;22.75;15.00;;;;;5.20;100.00;100956.88;5082444;27;45299;-62
2022/04/09 04:53:04;;;;;;;;;21.00;19.75;;;;;5.21;100.00;100952.59;5082848;27;45551;-64
2022/04/09 04:55:29;;;;;;;;;21.75;20.00;;;;;5.22;100.00;100967.19;5082478;27;45264;-65
2022/04/09 04:57:55;;;;;;;;;19.75;17.25;;;;;5.21;100.00;100958.59;5081309;28;45375;-65
2022/04/09 05:00:25;;;;;;;;;26.25;22.00;;;;;5.20;100.00;100969.75;5081201;27;45509;-65
2022/04/09 05:02:51;;;;;;;;;24.75;19.25;;;;;5.23;100.00;100977.50;5082605;28;46188;-64
2022/04/09 05:05:17;;;;;;;;;24.00;19.25;;;;;5.30;100.00;100973.19;5082098;27;45368;-64
2022/04/09 05:07:46;;;;;;;;;20.00;19.25;;;;;5.32;100.00;100980.03;5081397;27;45557;-64
2022/04/09 05:10:14;;;;;;;;;20.00;16.50;;;;;5.33;100.00;100978.31;5082452;27;45486;-64
2022/04/09 05:12:40;;;;;;;;;21.00;19.00;;;;;5.34;100.00;100980.91;5081505;28;47287;-64
2022/04/09 05:15:08;;;;;;;;;25.00;20.50;;;;;5.37;100.00;100977.44;5082684;27;45266;-64
2022/04/09 05:17:33;;;;;;;;;30.25;20.50;;;;;5.40;100.00;100985.16;5078331;28;45357;-64
2022/04/09 05:20:01;;;;;;;;;21.50;19.00;;;;;5.43;100.00;100975.72;5081530;28;45301;-64
2022/04/09 05:22:32;;;;;;;;;24.00;18.00;;;;;5.48;100.00;100983.44;5082692;28;45459;-65
2022/04/09 05:24:58;;;;;;;;;24.25;21.75;;;;;5.50;100.00;100981.72;5069482;27;45283;-65
2022/04/09 05:27:24;;;;;;;;;33.75;23.75;;;;;5.56;100.00;100981.69;5081318;28;46509;-65
2022/04/09 05:29:50;;;;;;;;;27.00;26.00;;;;;5.61;100.00;100990.28;5082651;27;45330;-66
2022/04/09 05:32:17;;;;;;;;;32.25;27.75;;;;;5.65;100.00;100989.41;5082078;27;45420;-75
2022/04/09 05:34:42;;;;;;;;;34.50;31.50;;;;;5.70;100.00;100994.53;5080330;28;45899;-65
2022/04/09 05:37:08;;;;;;;;;37.00;24.50;;;;;5.74;100.00;100994.53;5079855;27;45432;-66
2022/04/09 05:39:33;;;;;;;;;26.25;24.50;;;;;5.78;100.00;101003.97;5080537;28;45660;-65
2022/04/09 05:41:58;;;;;;;;;23.75;23.00;;;;;5.80;100.00;101012.53;5081836;27;45414;-67
2022/04/09 05:44:24;;;;;;;;;25.75;21.25;;;;;5.76;100.00;101008.25;5081631;27;45450;-68
2022/04/09 05:46:49;;;;;;;;;29.50;23.50;;;;;5.75;100.00;101014.28;5081834;27;45204;-68
2022/04/09 05:49:14;;;;;;;;;26.75;19.75;;;;;5.75;100.00;101016.88;5080859;27;45258;-69
2022/04/09 05:51:40;;;;;;;;;27.50;24.50;;;;;5.74;100.00;101019.44;5081615;27;46408;-69
2022/04/09 05:54:05;;;;;;;;;25.00;22.50;;;;;5.75;100.00;101019.44;5081307;27;45262;-69
2022/04/09 05:56:31;;;;;;;;;30.25;27.75;;;;;5.77;100.00;101020.28;5081903;28;45134;-67
2022/04/09 05:58:56;;;;;;;;;28.50;20.50;;;;;5.75;100.00;101011.72;5081298;27;45583;-66
2022/04/09 06:01:22;;;;;;;;;20.25;17.25;;;;;5.74;100.00;101022.88;5079843;28;47630;-65
2022/04/09 06:03:47;;;;;;;;;23.25;19.50;;;;;5.73;100.00;101015.16;5077893;27;45349;-66
2022/04/09 06:06:13;;;;;;;;;24.00;20.50;;;;;5.75;100.00;101018.59;5081433;27;45371;-65
2022/04/09 06:08:38;;;;;;;;;23.25;19.00;;;;;5.76;100.00;101023.72;5073811;28;45605;-66
2022/04/09 06:11:05;;;;;;;;;22.25;17.25;;;;;5.76;100.00;101023.72;5081345;28;45467;-66
2022/04/09 06:13:30;;;;;;;;;25.00;20.25;;;;;5.76;100.00;101026.31;5081283;28;45492;-66
2022/04/09 06:15:56;;;;;;;;;31.75;26.25;;;;;5.79;100.00;101031.47;5080383;28;45516;-66
2022/04/09 06:18:21;;;;;;;;;23.50;20.00;;;;;5.84;100.00;101040.94;5081351;27;45522;-67
2022/04/09 06:20:46;;;;;;;;;38.00;26.25;;;;;5.89;100.00;101039.19;5079690;28;47210;-67
2022/04/09 06:23:12;;;;;;;;;28.50;26.25;;;;;5.90;100.00;101040.94;5080379;27;45400;-65
2022/04/09 06:25:37;;;;;;;;;30.50;21.25;;;;;5.96;100.00;101049.50;5081494;27;45357;-67
2022/04/09 06:28:03;;;;;;;;;20.00;20.00;;;;;6.00;100.00;101047.75;5080486;27;45596;-65
2022/04/09 06:30:29;;;;;;;;;31.00;24.50;;;;;6.02;100.00;101064.13;5081062;28;45686;-67
2022/04/09 06:32:54;;;;;;;;;24.00;19.75;;;;;6.02;100.00;101064.13;5081069;27;45248;-65
2022/04/09 06:35:20;;;;;;;;;27.00;22.00;;;;;6.02;100.00;101067.56;5078863;28;45390;-65
2022/04/09 06:37:46;;;;;;;;;25.75;23.25;;;;;6.04;100.00;101070.13;5080816;27;45401;-65
2022/04/09 06:40:12;;;;;;;;;28.25;22.50;;;;;6.01;100.00;101075.28;5079425;28;47165;-65
2022/04/09 06:42:39;;;;;;;;;34.75;23.00;;;;;5.97;100.00;101069.25;5080775;27;45992;-65
2022/04/09 06:45:05;;;;;;;;;26.50;23.50;;;;;5.98;100.00;101075.28;5081014;27;45472;-66
2022/04/09 06:47:30;;;;;;;;;20.75;17.50;;;;;5.96;100.00;101077.88;5080742;27;45518;-65
2022/04/09 06:49:57;;;;;;;;;32.75;25.25;;;;;5.95;100.00;101072.72;5080548;27;46249;-68
2022/04/09 06:52:22;;;;;;;;;28.75;20.75;;;;;6.00;100.00;101077.00;5080747;27;45721;-68
2022/04/09 06:54:48;;;;;;;;;31.25;25.75;;;;;6.03;100.00;101081.31;5080737;27;45371;-68
2022/04/09 06:57:13;;;;;;;;;26.25;21.50;;;;;6.07;100.00;101085.59;5080448;27;45232;-68
2022/04/09 06:59:39;;;;;;;;;27.50;24.25;;;;;6.09;100.00;101081.28;5080703;27;45364;-68
2022/04/09 07:02:04;;;;;;;;;33.75;27.50;;;;;6.12;100.00;101086.41;5079523;27;45176;-67
2022/04/09 07:04:29;;;;;;;;;24.75;18.75;;;;;6.15;100.00;101101.03;5080286;27;45417;-67
2022/04/09 07:06:55;;;;;;;;;30.25;27.00;;;;;6.17;100.00;101100.16;5080430;27;45211;-67
2022/04/09 07:09:20;;;;;;;;;24.75;22.00;;;;;6.20;100.00;101104.44;5080957;27;45998;-66
2022/04/09 07:11:45;;;;;;;;;24.25;22.00;;;;;6.21;100.00;101101.88;5080761;27;45186;-68
2022/04/09 07:14:11;;;;;;;;;27.50;24.00;;;;;6.24;100.00;101101.00;5079166;28;45408;-64
2022/04/09 07:16:36;;;;;;;;;34.50;24.25;;;;;6.34;100.00;101116.44;5080124;27;45501;-65
2022/04/09 07:19:02;;;;;;;;;25.75;25.00;;;;;6.43;100.00;101117.28;5080019;27;45348;-66
2022/04/09 07:21:28;;;;;;;;;26.25;18.75;;;;;6.43;100.00;101112.97;5080106;27;45533;-67
2022/04/09 07:23:53;;;;;;;;;31.50;20.25;;;;;6.46;100.00;101112.97;5080498;27;45468;-66
2022/04/09 07:26:20;;;;;;;;;38.50;31.75;;;;;6.45;100.00;101119.00;5079859;27;45381;-67
2022/04/09 07:28:46;;;;;;;;;24.00;18.50;;;;;6.49;100.00;101120.69;5079929;27;46223;-66
2022/04/09 07:31:12;;;;;;;;;27.00;19.50;;;;;6.49;100.00;101122.41;5080574;27;45252;-67
2022/04/09 07:33:37;;;;;;;;;21.75;16.50;;;;;6.47;100.00;101122.41;5080690;27;45719;-68
2022/04/09 07:36:04;;;;;;;;;26.50;18.50;;;;;6.50;100.00;101124.97;5071732;28;45493;-67
2022/04/09 07:38:29;;;;;;;;;21.00;20.00;;;;;6.55;100.00;101127.53;5080459;27;45326;-68
2022/04/09 07:40:55;;;;;;;;;17.50;17.50;;;;;6.57;100.00;101124.06;5080530;27;45294;-68
2022/04/09 07:43:20;;;;;;;;;24.75;21.00;;;;;6.64;100.00;101132.66;5079229;28;45294;-69
2022/04/09 07:45:47;;;;;;;;;25.00;18.75;;;;;6.67;100.00;101133.50;5080318;27;45479;-69
2022/04/09 07:48:12;;;;;;;;;22.00;18.00;;;;;6.70;100.00;101130.03;5078875;28;47287;-70
2022/04/09 07:50:38;;;;;;;;;21.25;18.00;;;;;6.76;100.00;101136.91;5080069;27;45317;-67
2022/04/09 07:53:04;;;;;;;;;20.00;18.00;;;;;6.84;100.00;101141.16;5080550;27;45390;-72
2022/04/09 07:55:30;;;;;;;;;24.00;21.25;;;;;6.99;100.00;101155.69;5080042;27;45668;-67
2022/04/09 07:57:55;;;;;;;;;16.75;16.75;;;;;7.13;100.00;101147.88;5080309;27;45465;-66
2022/04/09 08:00:24;;;;;;;;;19.50;15.25;;;;;7.17;100.00;101152.13;5071545;27;45232;-68
2022/04/09 08:02:49;;;;;;;;;19.00;16.50;;;;;7.21;100.00;101151.28;5080633;27;45262;-67
2022/04/09 08:05:18;;;;;;;;;23.75;17.75;;;;;7.20;100.00;101147.81;5080017;28;45405;-68
2022/04/09 08:07:44;;;;;;;;;19.50;15.00;;;;;7.21;100.00;101156.44;5080204;27;45398;-65
2022/04/09 08:10:11;;;;;;;;;17.00;15.00;;;;;7.29;100.00;101152.94;5079796;28;45378;-67
2022/04/09 08:12:38;;;;;;;;;20.00;13.25;;;;;7.29;100.00;101150.34;5078594;28;45323;-65
2022/04/09 08:15:04;;;;;;;;;18.00;18.00;;;;;7.31;100.00;101158.09;5079885;27;45235;-65
2022/04/09 08:17:29;;;;;;;;;15.75;11.50;;;;;7.25;100.00;101156.41;5079753;27;46885;-65
2022/04/09 08:19:56;;;;;;;;;20.50;15.25;;;;;7.22;100.00;101155.56;5079537;27;45249;-65
2022/04/09 08:22:22;;;;;;;;;10.75;10.00;;;;;7.32;100.00;101154.63;5080106;27;45366;-64
2022/04/09 08:24:48;;;;;;;;;17.25;13.25;;;;;7.39;100.00;101161.44;5079359;27;45456;-67
2022/04/09 08:27:13;;;;;;;;;24.00;17.00;;;;;7.49;100.00;101159.66;5079089;27;46168;-67
2022/04/09 08:29:39;;;;;;;;;10.00;10.00;;;;;7.62;100.00;101174.22;5079092;27;45468;-67
2022/04/09 08:32:04;;;;;;;;;18.00;13.00;;;;;7.58;100.00;101167.34;5079458;27;45386;-66
2022/04/09 08:34:35;;;;;;;;;14.50;10.00;;;;;7.57;100.00;101170.78;5078761;27;45592;-65
2022/04/09 08:37:00;;;;;;;;;15.00;13.25;;;;;7.50;100.00;101184.66;5078560;27;47237;-66
2022/04/09 08:39:26;;;;;;;;;13.75;11.00;;;;;7.40;100.00;101189.03;5079262;28;45347;-67
2022/04/09 08:41:53;;;;;;;;;14.25;14.00;;;;;7.29;100.00;101191.69;5079089;27;45273;-69
2022/04/09 08:44:18;;;;;;;;;16.00;14.25;;;;;7.20;100.00;101191.75;5077839;28;45341;-64
2022/04/09 08:46:46;;;;;;;;;18.25;13.75;;;;;7.16;100.00;101199.53;5079550;28;45869;-65
2022/04/09 08:49:12;;;;;;;;;18.25;12.00;;;;;7.19;100.00;101209.84;5079425;27;46079;-71
2022/04/09 08:51:38;;;;;;;;;13.25;9.00;;;;;7.20;100.00;101208.97;5078284;27;45183;-69
2022/04/09 08:54:04;;;;;;;;;17.75;13.00;;;;;7.13;100.00;101205.59;5077888;27;45293;-68
2022/04/09 08:56:33;;;;;;;;;14.00;11.00;;;;;7.16;100.00;101209.88;5076590;28;47947;-71
2022/04/09 08:59:00;;;;;;;;;14.50;11.50;;;;;7.21;100.00;101216.75;5076491;28;45784;-67
2022/04/09 09:01:26;;;;;;;;;11.25;10.00;;;;;7.23;100.00;101220.19;5078058;27;45357;-67
2022/04/09 09:03:52;;;;;;;;;11.25;10.00;;;;;7.23;100.00;101222.78;5077682;27;45430;-68
2022/04/09 09:06:29;;;;;;;;;10.00;8.50;;;;;7.25;100.00;101231.38;5077546;27;46224;-69
2022/04/09 09:08:59;;;;;;;;;12.50;9.50;;;;;7.22;100.00;101230.53;5075668;28;45556;-70
2022/04/09 09:11:29;;;;;;;;;10.50;8.00;;;;;7.17;100.00;101227.09;5076620;28;45456;-75
2022/04/09 09:13:57;;;;;;;;;15.00;10.00;;;;;7.18;99.89;101224.50;5075312;28;45456;-74
2022/04/09 09:16:29;;;;;;;;;12.00;10.75;;;;;7.22;100.00;101226.22;5077753;27;46425;-65
2022/04/09 09:18:59;;;;;;;;;8.50;8.50;;;;;7.30;100.00;101228.75;5075741;28;45892;-65
2022/04/09 09:21:28;;;;;;;;;12.75;11.50;;;;;7.31;100.00;101235.63;5077641;27;45470;-67
2022/04/09 09:24:08;;;;;;;;;11.50;9.75;;;;;7.43;100.00;101230.41;5075303;28;45458;-68
2022/04/09 09:26:38;;;;;;;;;12.75;8.25;;;;;7.53;100.00;101234.63;5078518;27;45405;-70
2022/04/09 09:29:04;;;;;;;;;10.25;7.50;;;;;7.69;100.00;101242.28;5080847;27;45972;-67
2022/04/09 09:31:44;;;;;;;;;8.25;6.00;;;;;7.83;100.00;101241.31;5078062;27;45328;-70
2022/04/09 09:34:14;;;;;;;;;7.00;7.00;;;;;7.86;100.00;101248.19;5078670;27;46073;-65
2022/04/09 09:36:42;;;;;;;;;9.75;6.00;;;;;7.91;100.00;101260.22;5076731;28;45416;-63
2022/04/09 09:39:09;;;;;;;;;10.00;10.00;;;;;7.99;100.00;101252.38;5080934;27;45927;-64
2022/04/09 09:41:45;;;;;;;;;13.25;9.50;;;;;8.10;100.00;101255.72;5080994;27;45310;-63
2022/04/09 09:44:10;;;;;;;;;12.75;10.25;;;;;8.31;100.00;101261.56;5080776;27;45491;-63
2022/04/09 09:46:36;;;;;;;;;6.00;5.75;;;;;8.50;100.00;101265.72;5080742;27;45612;-61
2022/04/09 09:49:01;;;;;;;;;8.75;8.00;;;;;8.66;100.00;101269.03;5080853;27;45886;-61
2022/04/09 09:51:27;;;;;;;;;10.50;7.00;;;;;8.76;100.00;101273.22;5079559;28;45461;-62
2022/04/09 09:54:11;;;;;;;;;6.00;6.00;;;;;8.71;100.00;101280.19;5080528;27;45438;-62
2022/04/09 09:56:44;;;;;;;;;7.50;7.50;;;;;8.70;100.00;101281.06;5078219;28;47119;-62
2022/04/09 09:59:13;;;;;;;;;7.25;7.00;;;;;8.64;100.00;101279.41;5078672;28;45360;-62
2022/04/09 10:01:44;;;;;;;;;9.50;7.75;;;;;8.57;100.00;101290.69;5078559;27;45355;-62
2022/04/09 10:04:13;;;;;;;;;9.50;7.00;;;;;8.44;100.00;101297.75;5079995;27;45308;-61
2022/04/09 10:06:42;;;;;;;;;10.25;7.00;;;;;8.31;100.00;101309.06;5077924;28;46249;-62
2022/04/09 10:09:08;;;;;;;;;9.50;7.00;;;;;8.20;100.00;101314.31;5080317;27;45900;-63
2022/04/09 10:11:49;;;;;;;;;8.25;8.25;;;;;8.12;100.00;101318.69;5079191;28;45322;-62
2022/04/09 10:14:21;;;;;;;;;9.50;8.25;;;;;8.00;100.00;101318.78;5077531;28;45411;-59
2022/04/09 10:16:50;;;;;;;;;11.75;9.50;;;;;7.81;98.58;101325.84;5080223;27;45398;-59
2022/04/09 10:19:18;;;;;;;;;10.50;6.00;;;;;7.68;100.00;101331.97;5076872;27;45244;-59
2022/04/09 10:21:46;;;;;;;;;13.00;9.00;;;;;7.67;100.00;101330.25;5078981;27;45315;-61
2022/04/09 10:24:18;;;;;;;;;11.00;9.25;;;;;7.68;100.00;101326.78;5080162;27;45492;-59
2022/04/09 10:26:44;;;;;;;;;10.00;7.00;;;;;7.70;100.00;101332.81;5080040;27;46084;-59
2022/04/09 10:29:10;;;;;;;;;15.00;9.75;;;;;7.77;100.00;101331.03;5079783;28;45423;-61
2022/04/09 10:31:40;;;;;;;;;10.00;7.00;;;;;7.77;100.00;101337.06;5068581;27;45441;-61
2022/04/09 10:34:07;;;;;;;;;12.00;11.00;;;;;7.81;100.00;101341.38;5077072;28;45246;-61
2022/04/09 10:36:45;;;;;;;;;11.75;9.00;;;;;7.93;100.00;101340.41;5079808;27;46624;-61
2022/04/09 10:39:44;;;;;;;;;10.00;9.25;;;;;8.02;92.88;101353.31;5078574;27;45358;-61
2022/04/09 10:42:10;;;;;;;;;6.50;6.50;;;;;8.01;98.71;101354.19;5079880;28;45296;-67
2022/04/09 10:44:52;;;;;;;;;9.00;6.00;;;;;8.07;100.00;101354.13;5078578;28;45672;-61
2022/04/09 10:47:18;;;;;;;;;6.00;6.00;;;;;8.21;100.00;101351.44;5077283;28;46463;-62
2022/04/09 10:50:02;;;;;;;;;13.00;10.75;;;;;8.38;100.00;101344.41;5077338;28;45492;-75
2022/04/09 10:52:29;;;;;;;;;11.00;8.00;;;;;8.49;100.00;101355.53;5077989;28;45276;-65
2022/04/09 10:55:09;;;;;;;;;10.25;10.00;;;;;8.72;100.00;101359.63;5079094;28;45322;-71
2022/04/09 10:57:45;;;;;;;;;7.75;7.75;;;;;8.84;100.00;101360.38;5070000;27;47070;-71
2022/04/09 11:00:23;;;;;;;;;6.00;6.00;;;;;9.07;100.00;101359.28;5076903;28;45378;-62
2022/04/09 11:03:25;;;;;;;;;10.00;7.00;;;;;9.26;100.00;101358.19;5076005;28;45409;-60
2022/04/09 11:05:51;;;;;;;;;11.50;11.00;;;;;9.38;100.00;101362.34;5078870;27;45588;-63
2022/04/09 11:08:20;;;;;;;;;11.50;11.00;;;;;9.45;100.00;101367.44;5078575;27;46387;-60
2022/04/09 11:10:46;;;;;;;;;11.00;8.75;;;;;9.52;100.00;101367.38;5077684;28;45413;-62
2022/04/09 11:13:15;;;;;;;;;6.00;6.00;;;;;9.59;100.00;101372.44;5086470;27;45397;-63